Time;durP1;ratioP1;P1;durP2;ratioP2;P2;SDS_P1;SDS_P2;PMS_P1;PMS_P2;Temp;Humidity;BMP_temperature;BMP_pressure;BME280_temperature;BME280_humidity;BME280_pressure;Samples;Min_cycle;Max_cycle;Signal;HPM_P1;HPM_P2
2022/06/19 00:00:51;;;;;;;;;16.00;14.20;;;;;22.62;40.56;99711.28;4960547;28;8841;-75
2022/06/19 00:03:25;;;;;;;;;13.80;13.80;;;;;22.58;40.60;99708.75;4992648;28;8907;-77
2022/06/19 00:05:55;;;;;;;;;13.20;13.20;;;;;22.52;40.83;99702.88;4994856;28;8947;-80
2022/06/19 00:08:24;;;;;;;;;14.00;12.60;;;;;22.52;40.58;99705.53;4999609;28;8862;-77
2022/06/19 00:10:53;;;;;;;;;12.60;12.60;;;;;22.51;40.73;99702.03;5015988;28;10045;-79
2022/06/19 00:13:22;;;;;;;;;12.60;11.40;;;;;22.53;40.56;99697.50;5011042;28;8889;-80
2022/06/19 00:15:51;;;;;;;;;11.60;11.60;;;;;22.56;40.47;99696.50;4994895;28;8846;-78
2022/06/19 00:18:19;;;;;;;;;11.20;10.80;;;;;22.59;40.21;99696.34;5018581;28;8845;-77
2022/06/19 00:20:48;;;;;;;;;13.60;13.60;;;;;22.53;40.65;99696.63;5032660;28;10237;-76
2022/06/19 00:23:18;;;;;;;;;13.40;13.40;;;;;22.54;40.46;99698.34;5024029;28;8986;-75
2022/06/19 00:25:47;;;;;;;;;13.20;12.80;;;;;22.55;40.87;99692.97;5041870;28;8856;-79
2022/06/19 00:28:16;;;;;;;;;11.60;10.80;;;;;22.55;40.52;99686.78;5020431;28;8860;-75
2022/06/19 00:30:44;;;;;;;;;11.20;11.20;;;;;22.54;40.81;99687.72;4968084;28;8947;-77
2022/06/19 00:33:13;;;;;;;;;9.40;9.40;;;;;22.56;41.13;99686.72;5014349;28;8864;-75
2022/06/19 00:35:42;;;;;;;;;12.60;11.20;;;;;22.59;40.61;99680.41;5032082;28;8829;-78
2022/06/19 00:38:10;;;;;;;;;13.20;13.20;;;;;22.62;40.44;99682.03;4998918;28;8963;-79
2022/06/19 00:40:41;;;;;;;;;13.20;13.20;;;;;22.60;40.83;99681.25;5014897;28;9715;-77
2022/06/19 00:43:09;;;;;;;;;10.60;10.60;;;;;22.56;40.88;99680.53;5014593;28;8900;-79
2022/06/19 00:45:41;;;;;;;;;12.20;11.20;;;;;22.56;41.03;99681.41;5032834;28;8868;-80
2022/06/19 00:48:16;;;;;;;;;12.60;11.80;;;;;22.60;40.93;99686.56;5014811;28;8937;-77
2022/06/19 00:50:48;;;;;;;;;9.40;9.40;;;;;22.58;40.92;99687.50;5002349;28;8870;-80
2022/06/19 00:53:19;;;;;;;;;13.40;13.40;;;;;22.56;41.33;99694.69;5032650;28;8844;-77
2022/06/19 00:55:51;;;;;;;;;18.00;17.40;;;;;22.48;41.98;99694.19;5032422;28;9003;-76
2022/06/19 00:58:25;;;;;;;;;14.80;14.80;;;;;22.49;41.83;99695.91;5014110;28;8868;-79
2022/06/19 01:00:58;;;;;;;;;15.60;14.80;;;;;22.47;42.23;99696.91;5014640;28;8894;-77
2022/06/19 01:03:36;;;;;;;;;14.20;13.40;;;;;22.46;42.64;99690.75;5014458;28;8848;-76
2022/06/19 01:06:06;;;;;;;;;15.40;14.80;;;;;22.44;42.94;99694.41;5032189;28;8844;-77
2022/06/19 01:08:36;;;;;;;;;13.80;13.80;;;;;22.42;42.75;99689.19;4965833;28;8852;-77
2022/06/19 01:11:06;;;;;;;;;13.00;13.00;;;;;22.40;42.41;99691.06;4997744;28;8860;-80
2022/06/19 01:13:36;;;;;;;;;13.40;13.40;;;;;22.38;42.92;99693.78;5013821;28;8860;-77
2022/06/19 01:16:06;;;;;;;;;10.40;10.40;;;;;22.37;43.11;99685.88;5031774;28;8863;-76
2022/06/19 01:18:38;;;;;;;;;15.00;15.00;;;;;22.32;43.42;99694.03;4979975;28;8845;-79
2022/06/19 01:21:18;;;;;;;;;15.40;14.40;;;;;22.33;43.52;99684.28;4997862;28;8848;-78
2022/06/19 01:23:58;;;;;;;;;15.20;15.00;;;;;22.29;43.25;99694.19;5031246;28;8946;-79
2022/06/19 01:26:32;;;;;;;;;18.00;18.00;;;;;22.27;43.28;99690.75;5030810;28;8844;-78
2022/06/19 01:29:01;;;;;;;;;15.20;14.60;;;;;22.20;43.76;99687.47;5013451;28;8928;-77
2022/06/19 01:31:34;;;;;;;;;17.60;16.60;;;;;22.13;44.28;99696.66;5013664;28;8856;-76
2022/06/19 01:34:26;;;;;;;;;17.40;16.60;;;;;22.10;44.47;99690.66;5031117;28;8975;-77
2022/06/19 01:37:01;;;;;;;;;14.20;14.20;;;;;22.02;44.32;99696.28;5013271;28;8828;-77
2022/06/19 01:39:35;;;;;;;;;14.80;14.00;;;;;21.97;44.37;99690.34;5031166;28;8836;-77
2022/06/19 01:42:07;;;;;;;;;16.40;16.40;;;;;21.92;44.66;99694.97;4997574;28;8869;-77
2022/06/19 01:44:37;;;;;;;;;15.60;14.20;;;;;21.92;44.41;99700.28;4979834;28;8844;-75
2022/06/19 01:47:06;;;;;;;;;14.60;14.60;;;;;21.93;44.53;99707.34;5014113;28;8986;-75
2022/06/19 01:49:38;;;;;;;;;15.20;14.20;;;;;21.82;44.81;99704.31;5014781;28;8887;-77
2022/06/19 01:52:08;;;;;;;;;18.80;15.00;;;;;21.73;44.69;99705.56;5033224;28;8852;-78
2022/06/19 01:54:40;;;;;;;;;16.80;16.40;;;;;21.67;45.05;99703.19;5014695;28;8855;-79
2022/06/19 01:57:12;;;;;;;;;15.40;14.80;;;;;21.64;44.83;99705.94;5020362;28;8890;-76
2022/06/19 01:59:43;;;;;;;;;16.20;13.80;;;;;21.58;43.88;99699.13;5029753;28;8875;-80
2022/06/19 02:02:15;;;;;;;;;15.00;13.80;;;;;21.61;44.36;99702.50;5012724;28;9612;-77
2022/06/19 02:04:44;;;;;;;;;15.60;13.60;;;;;21.58;44.46;99699.97;5030381;28;8898;-75
2022/06/19 02:07:18;;;;;;;;;14.80;14.80;;;;;21.56;44.17;99699.19;5029558;28;8848;-80
2022/06/19 02:09:48;;;;;;;;;14.20;14.20;;;;;21.54;44.28;99695.75;4995999;28;8863;-78
2022/06/19 02:12:18;;;;;;;;;12.80;12.80;;;;;21.54;43.96;99692.22;5012553;28;8945;-77
2022/06/19 02:14:47;;;;;;;;;16.40;15.20;;;;;21.53;44.13;99690.50;5030228;28;8890;-76
2022/06/19 02:17:21;;;;;;;;;16.00;13.80;;;;;21.55;44.14;99686.84;5030851;28;8882;-77
2022/06/19 02:19:51;;;;;;;;;16.80;15.80;;;;;21.53;43.54;99679.88;5012920;28;8871;-79
2022/06/19 02:22:19;;;;;;;;;15.20;15.20;;;;;21.53;43.41;99690.50;4995821;28;8875;-76
2022/06/19 02:24:48;;;;;;;;;15.40;13.80;;;;;21.53;43.90;99683.41;5012900;28;8898;-78
2022/06/19 02:27:19;;;;;;;;;15.00;15.00;;;;;21.52;43.87;99681.69;4979591;28;8902;-76
2022/06/19 02:29:48;;;;;;;;;13.40;12.60;;;;;21.46;44.34;99683.75;5031246;28;8871;-77
2022/06/19 02:32:22;;;;;;;;;29.75;28.75;;;;;21.46;44.46;99681.09;5032511;28;8933;-76
2022/06/19 02:34:51;;;;;;;;;17.20;16.40;;;;;21.43;44.70;99687.34;5032131;28;8875;-77
2022/06/19 02:37:22;;;;;;;;;14.20;14.20;;;;;21.42;44.75;99680.31;4996808;28;8966;-75
2022/06/19 02:39:57;;;;;;;;;15.20;13.80;;;;;21.37;44.56;99674.34;5033129;28;8894;-76
2022/06/19 02:42:33;;;;;;;;;16.00;15.40;;;;;21.42;44.91;99686.50;4982301;28;8856;-76
2022/06/19 02:45:05;;;;;;;;;15.00;15.00;;;;;21.35;45.39;99679.72;5029761;28;8851;-77
2022/06/19 02:47:36;;;;;;;;;13.80;13.60;;;;;21.37;45.25;99685.81;5032904;28;8844;-78
2022/06/19 02:50:08;;;;;;;;;15.20;15.20;;;;;21.36;45.51;99684.09;5034179;28;8886;-77
2022/06/19 02:52:37;;;;;;;;;12.20;11.00;;;;;21.36;45.13;99689.41;5032721;28;8890;-80
2022/06/19 02:55:07;;;;;;;;;14.20;13.00;;;;;21.31;46.20;99694.03;5030661;28;8851;-78
2022/06/19 02:57:37;;;;;;;;;16.60;15.20;;;;;21.31;46.39;99695.84;5030258;28;8855;-77
2022/06/19 03:00:09;;;;;;;;;17.00;16.60;;;;;21.28;46.63;99701.25;5032068;28;8855;-77
2022/06/19 03:02:38;;;;;;;;;18.40;16.00;;;;;21.28;47.14;99698.63;4965929;28;8828;-77
2022/06/19 03:05:11;;;;;;;;;15.60;15.60;;;;;21.24;47.48;99708.47;5032622;28;8859;-76
2022/06/19 03:07:40;;;;;;;;;18.00;16.80;;;;;21.23;47.99;99702.31;5032813;28;8866;-78
2022/06/19 03:10:10;;;;;;;;;17.00;15.60;;;;;21.26;47.23;99703.13;4999217;28;9736;-77
2022/06/19 03:12:40;;;;;;;;;20.40;19.40;;;;;21.25;47.08;99706.69;5032484;28;8986;-77
2022/06/19 03:15:09;;;;;;;;;16.60;16.00;;;;;21.29;46.66;99706.50;5033320;28;8847;-77
2022/06/19 03:17:39;;;;;;;;;20.40;18.00;;;;;21.35;47.20;99705.38;5032057;28;8910;-77
2022/06/19 03:20:11;;;;;;;;;15.00;15.00;;;;;21.34;47.05;99706.31;5031400;28;8975;-78
2022/06/19 03:22:40;;;;;;;;;15.40;15.40;;;;;21.36;46.41;99700.03;5030176;28;8951;-77
2022/06/19 03:25:09;;;;;;;;;14.60;14.20;;;;;21.38;46.34;99697.31;5031509;28;8871;-76
2022/06/19 03:27:37;;;;;;;;;13.40;12.80;;;;;21.46;45.77;99697.00;5029296;28;8900;-77
2022/06/19 03:30:09;;;;;;;;;14.00;13.60;;;;;21.47;45.60;99694.28;5011526;28;8911;-76
2022/06/19 03:32:37;;;;;;;;;15.20;15.20;;;;;21.53;45.77;99696.69;5029339;28;8861;-77
2022/06/19 03:35:07;;;;;;;;;12.80;12.80;;;;;21.60;45.14;99699.91;5027844;28;8868;-75
2022/06/19 03:37:35;;;;;;;;;14.00;13.40;;;;;21.70;44.96;99697.72;5013057;28;8876;-77
2022/06/19 03:40:05;;;;;;;;;13.40;13.40;;;;;21.78;44.41;99700.91;5012737;28;8877;-77
2022/06/19 03:42:34;;;;;;;;;14.20;13.20;;;;;21.85;44.52;99702.34;5012926;28;8856;-77
2022/06/19 03:45:02;;;;;;;;;15.60;15.60;;;;;21.90;44.60;99710.13;5011464;28;8865;-76
2022/06/19 03:47:32;;;;;;;;;16.60;16.20;;;;;21.79;45.48;99702.63;5031152;28;8887;-76
2022/06/19 03:50:02;;;;;;;;;16.40;16.40;;;;;21.79;45.53;99708.78;5028840;28;8872;-76
2022/06/19 03:52:31;;;;;;;;;17.40;16.80;;;;;21.79;45.76;99700.81;4985446;28;8876;-75
2022/06/19 03:54:59;;;;;;;;;18.20;17.00;;;;;21.80;46.00;99704.38;5035918;28;8887;-77
2022/06/19 03:57:28;;;;;;;;;15.80;14.80;;;;;21.84;45.50;99710.41;5015210;28;8902;-76
2022/06/19 03:59:57;;;;;;;;;16.80;16.40;;;;;21.83;45.26;99719.28;5029671;28;8845;-81
2022/06/19 04:02:26;;;;;;;;;16.20;16.20;;;;;21.96;45.79;99718.66;4962095;28;8901;-79
2022/06/19 04:04:55;;;;;;;;;15.60;14.80;;;;;22.11;45.60;99722.41;5028693;28;8882;-76
2022/06/19 04:07:24;;;;;;;;;13.80;11.80;;;;;22.25;45.23;99716.53;4986507;28;8866;-78
2022/06/19 04:09:58;;;;;;;;;14.40;14.20;;;;;22.39;44.71;99713.22;4986503;28;8901;-79
2022/06/19 04:12:27;;;;;;;;;14.80;14.80;;;;;22.50;43.39;99710.06;4986201;28;8882;-77
2022/06/19 04:14:55;;;;;;;;;14.00;13.40;;;;;22.62;42.64;99714.78;4969831;28;8882;-76
2022/06/19 04:17:24;;;;;;;;;13.20;13.20;;;;;22.54;42.75;99719.63;4988346;28;8911;-79
2022/06/19 04:19:53;;;;;;;;;15.80;14.40;;;;;22.54;42.80;99728.44;4989843;28;9055;-77
2022/06/19 04:22:23;;;;;;;;;14.60;14.20;;;;;22.68;42.47;99727.78;4989779;28;8935;-76
2022/06/19 04:24:51;;;;;;;;;13.80;13.40;;;;;22.77;42.33;99730.00;4990017;28;8858;-79
2022/06/19 04:27:20;;;;;;;;;14.00;14.00;;;;;22.85;42.21;99732.28;4957804;28;8850;-76
2022/06/19 04:29:49;;;;;;;;;15.40;15.20;;;;;22.89;42.30;99744.53;4989671;28;8858;-77
2022/06/19 04:32:18;;;;;;;;;16.80;16.80;;;;;22.97;42.66;99734.38;4979446;28;8874;-78
2022/06/19 04:34:47;;;;;;;;;14.40;13.80;;;;;23.05;42.25;99742.00;4961794;28;9741;-76
2022/06/19 04:37:16;;;;;;;;;20.00;17.20;;;;;22.97;41.71;99737.03;4989845;28;8870;-77
2022/06/19 04:39:46;;;;;;;;;18.60;17.60;;;;;22.73;42.18;99733.75;4989848;28;8993;-81
2022/06/19 04:42:15;;;;;;;;;16.40;16.00;;;;;22.61;42.07;99742.31;4973046;28;8881;-78
2022/06/19 04:44:44;;;;;;;;;19.20;14.60;;;;;22.64;42.21;99736.84;4987719;28;8995;-78
2022/06/19 04:47:12;;;;;;;;;19.80;16.60;;;;;22.66;42.26;99728.81;4979968;28;8848;-76
2022/06/19 04:49:41;;;;;;;;;16.40;16.00;;;;;22.69;42.77;99731.31;5005125;28;8962;-74
2022/06/19 04:52:10;;;;;;;;;17.60;17.60;;;;;22.63;42.81;99734.25;5032020;28;8854;-77
2022/06/19 04:54:39;;;;;;;;;15.00;14.00;;;;;22.43;43.44;99736.06;5050055;28;8977;-76
2022/06/19 04:57:10;;;;;;;;;16.20;15.20;;;;;22.29;43.67;99735.84;5061515;28;8852;-76
2022/06/19 04:59:38;;;;;;;;;15.20;15.20;;;;;22.04;44.11;99741.34;5071124;28;9598;-77
2022/06/19 05:02:07;;;;;;;;;21.00;18.20;;;;;21.87;44.86;99743.00;5036825;28;8970;-77
2022/06/19 05:04:35;;;;;;;;;18.00;18.00;;;;;21.90;44.91;99744.63;5053429;28;8864;-76
2022/06/19 05:07:04;;;;;;;;;17.40;16.80;;;;;22.26;44.20;99731.53;5031529;28;8860;-76
2022/06/19 05:09:33;;;;;;;;;16.80;16.80;;;;;22.53;43.30;99725.84;5029822;28;10123;-80
2022/06/19 05:12:01;;;;;;;;;18.60;17.00;;;;;22.66;42.80;99719.03;5028098;28;8872;-77
2022/06/19 05:14:31;;;;;;;;;15.20;14.20;;;;;22.92;42.56;99723.09;5011528;28;9579;-77
2022/06/19 05:17:01;;;;;;;;;17.00;15.40;;;;;23.07;42.38;99718.00;5015058;28;8858;-77
2022/06/19 05:19:29;;;;;;;;;18.80;16.20;;;;;23.21;42.24;99722.63;5008563;28;8850;-77
2022/06/19 05:22:01;;;;;;;;;12.80;12.80;;;;;23.51;42.16;99723.72;5008153;28;9455;-78
2022/06/19 05:24:29;;;;;;;;;14.80;14.80;;;;;23.70;41.08;99720.13;5009117;28;8863;-78
2022/06/19 05:26:58;;;;;;;;;24.50;22.75;;;;;23.63;40.82;99724.91;5011250;28;8850;-76
2022/06/19 05:29:26;;;;;;;;;20.00;19.40;;;;;23.14;41.27;99727.41;5009048;28;8985;-77
2022/06/19 05:32:04;;;;;;;;;16.00;15.80;;;;;22.85;42.16;99721.66;5008367;28;8854;-81
2022/06/19 05:34:33;;;;;;;;;16.00;15.20;;;;;23.08;41.78;99728.56;4975663;28;8884;-78
2022/06/19 05:37:02;;;;;;;;;16.80;15.60;;;;;23.37;41.28;99725.41;4976084;28;8901;-77
2022/06/19 05:39:31;;;;;;;;;16.00;14.60;;;;;23.62;40.66;99727.66;5050184;28;8858;-78
2022/06/19 05:41:59;;;;;;;;;14.80;14.60;;;;;23.41;41.23;99722.50;5032100;28;8943;-75
2022/06/19 05:44:29;;;;;;;;;15.20;15.20;;;;;23.36;41.96;99724.50;5032378;28;8930;-78
2022/06/19 05:46:57;;;;;;;;;14.40;14.40;;;;;23.49;41.84;99724.75;5031696;28;8958;-77
2022/06/19 05:49:27;;;;;;;;;17.40;17.40;;;;;23.72;41.38;99715.56;5032159;28;8835;-78
2022/06/19 05:51:56;;;;;;;;;18.40;17.80;;;;;24.02;40.96;99718.47;5049950;28;8897;-80
2022/06/19 05:54:24;;;;;;;;;15.00;15.00;;;;;24.06;40.95;99722.66;5049407;28;9600;-77
2022/06/19 05:56:53;;;;;;;;;16.40;16.40;;;;;24.32;40.23;99725.75;5049581;28;8862;-77
2022/06/19 05:59:22;;;;;;;;;13.60;13.40;;;;;24.65;39.93;99716.84;5049393;28;8865;-78
2022/06/19 06:01:50;;;;;;;;;17.40;16.20;;;;;25.06;38.71;99719.81;5049641;28;8869;-77
2022/06/19 06:04:19;;;;;;;;;15.20;15.20;;;;;25.37;38.13;99715.41;5049066;28;8850;-81
2022/06/19 06:06:49;;;;;;;;;21.20;20.20;;;;;25.68;37.49;99708.22;5031780;28;8854;-79
2022/06/19 06:09:17;;;;;;;;;13.00;13.00;;;;;25.91;36.81;99717.50;5049688;28;8964;-76
2022/06/19 06:11:46;;;;;;;;;15.80;15.80;;;;;26.11;36.93;99710.13;4997662;28;9899;-75
2022/06/19 06:14:15;;;;;;;;;15.60;15.20;;;;;26.29;36.47;99708.94;5049474;28;8856;-78
2022/06/19 06:16:43;;;;;;;;;18.80;18.40;;;;;26.49;36.04;99699.66;5048948;28;8866;-76
2022/06/19 06:19:12;;;;;;;;;79.25;72.00;;;;;26.64;35.85;99698.69;5049167;28;8957;-77
2022/06/19 06:21:42;;;;;;;;;31.25;29.25;;;;;26.78;35.39;99704.97;5031574;28;10372;-75
2022/06/19 06:24:13;;;;;;;;;23.00;23.00;;;;;26.91;35.58;99705.88;5054359;28;8872;-75
2022/06/19 06:26:42;;;;;;;;;20.20;19.20;;;;;27.09;35.47;99702.94;5050633;28;8952;-77
2022/06/19 06:29:10;;;;;;;;;18.00;18.00;;;;;27.22;34.65;99710.06;5031849;28;8860;-80
2022/06/19 06:31:39;;;;;;;;;20.60;19.20;;;;;27.13;34.80;99709.84;5049642;28;8862;-80
2022/06/19 06:34:08;;;;;;;;;18.40;17.00;;;;;27.33;34.34;99705.81;5031668;28;8857;-75
2022/06/19 06:36:36;;;;;;;;;20.20;20.20;;;;;27.49;34.62;99709.19;5030974;28;8981;-77
2022/06/19 06:39:05;;;;;;;;;20.40;18.40;;;;;27.65;34.60;99700.94;5048587;28;9054;-77
2022/06/19 06:41:35;;;;;;;;;18.80;17.80;;;;;27.75;34.50;99703.84;5031036;28;8862;-78
2022/06/19 06:44:04;;;;;;;;;18.80;17.80;;;;;27.78;35.13;99707.16;5031344;28;8884;-80
2022/06/19 06:46:40;;;;;;;;;17.20;17.20;;;;;27.49;36.04;99705.66;5025680;28;8873;-77
2022/06/19 06:49:09;;;;;;;;;138.50;129.50;;;;;27.71;36.71;99707.69;5009363;28;9030;-77
2022/06/19 06:51:37;;;;;;;;;44.75;38.25;;;;;27.59;35.71;99715.63;5009511;28;11610;-78
2022/06/19 06:54:06;;;;;;;;;16.40;15.00;;;;;27.57;35.63;99709.50;5026210;28;8856;-77
2022/06/19 06:56:36;;;;;;;;;18.60;18.60;;;;;27.55;35.65;99710.59;4996735;28;9674;-76
2022/06/19 06:59:05;;;;;;;;;19.20;18.60;;;;;27.49;35.84;99708.34;5026195;28;9000;-78
2022/06/19 07:01:35;;;;;;;;;18.40;18.40;;;;;27.61;35.13;99697.63;5009164;28;8933;-78
2022/06/19 07:04:04;;;;;;;;;21.60;21.00;;;;;27.70;35.01;99701.50;5011360;28;9800;-75
2022/06/19 07:06:33;;;;;;;;;24.50;23.50;;;;;27.90;34.78;99696.59;5028487;28;8841;-77
2022/06/19 07:09:04;;;;;;;;;19.60;19.40;;;;;28.06;33.74;99696.38;4976833;28;8856;-76
2022/06/19 07:11:37;;;;;;;;;19.80;19.80;;;;;28.05;33.43;99691.97;5028225;28;8978;-77
2022/06/19 07:14:06;;;;;;;;;21.20;21.00;;;;;27.46;34.55;99700.50;5027529;28;8919;-77
2022/06/19 07:16:35;;;;;;;;;22.00;22.00;;;;;27.11;35.09;99691.19;5027185;28;8856;-75
2022/06/19 07:19:04;;;;;;;;;18.20;18.20;;;;;27.47;34.74;99696.84;5031822;28;8906;-76
2022/06/19 07:21:33;;;;;;;;;17.40;16.80;;;;;27.67;34.35;99696.34;5035292;28;8860;-76
2022/06/19 07:24:02;;;;;;;;;15.60;14.80;;;;;27.89;33.65;99689.53;5019977;28;8861;-76
2022/06/19 07:26:31;;;;;;;;;17.80;17.80;;;;;28.17;33.78;99697.31;5041182;28;8941;-76
2022/06/19 07:29:01;;;;;;;;;17.00;16.80;;;;;28.39;33.01;99690.41;5030989;28;8834;-78
2022/06/19 07:31:35;;;;;;;;;19.00;19.00;;;;;28.62;32.76;99687.91;5031301;28;8862;-77
2022/06/19 07:34:04;;;;;;;;;24.20;22.20;;;;;28.78;32.17;99685.81;5030877;28;8973;-76
2022/06/19 07:36:33;;;;;;;;;19.00;17.40;;;;;28.86;32.38;99685.25;5048340;28;8842;-76
2022/06/19 07:39:03;;;;;;;;;21.00;20.60;;;;;28.96;32.05;99687.13;5048222;28;8858;-75
2022/06/19 07:41:32;;;;;;;;;24.75;24.25;;;;;29.06;31.44;99686.44;5049029;28;8876;-77
2022/06/19 07:44:02;;;;;;;;;12.60;12.00;;;;;29.24;30.65;99678.84;5048718;28;8943;-77
2022/06/19 07:46:31;;;;;;;;;11.60;11.60;;;;;29.35;31.06;99684.25;5031461;28;8904;-76
2022/06/19 07:51:45;;;;;;;;;12.20;12.20;;;;;29.59;30.80;99680.66;5033100;28;8964;-78
2022/06/19 07:54:14;;;;;;;;;14.00;13.40;;;;;29.52;30.35;99681.09;5035119;28;8850;-77
2022/06/19 07:56:43;;;;;;;;;106.25;100.00;;;;;29.66;30.76;99685.44;5016713;28;9000;-79
2022/06/19 07:59:13;;;;;;;;;16.80;16.20;;;;;29.80;30.58;99680.84;5001226;28;11562;-77
2022/06/19 08:01:42;;;;;;;;;14.40;12.80;;;;;29.83;30.17;99685.94;5001521;28;8854;-77
2022/06/19 08:04:30;;;;;;;;;11.00;11.00;;;;;29.85;30.22;99687.56;5017831;28;8865;-76
2022/06/19 08:06:59;;;;;;;;;11.40;11.40;;;;;29.94;30.13;99683.28;5051910;28;8850;-77
2022/06/19 08:09:27;;;;;;;;;10.80;10.80;;;;;29.97;29.94;99687.56;5033489;28;8835;-77
2022/06/19 08:11:56;;;;;;;;;12.20;11.60;;;;;30.04;29.92;99680.69;5033753;28;8846;-79
2022/06/19 08:14:26;;;;;;;;;12.20;11.80;;;;;30.11;29.33;99680.13;5039479;28;8855;-76
2022/06/19 08:16:55;;;;;;;;;12.80;11.80;;;;;30.15;29.33;99672.63;5056817;28;9756;-78
2022/06/19 08:19:23;;;;;;;;;13.20;12.20;;;;;30.24;29.53;99674.59;5056772;28;8931;-76
2022/06/19 08:21:52;;;;;;;;;16.60;15.20;;;;;30.34;29.91;99671.19;5071947;28;8852;-76
2022/06/19 08:24:21;;;;;;;;;12.80;12.60;;;;;30.44;29.14;99673.00;5037212;28;8855;-81
2022/06/19 08:26:49;;;;;;;;;11.00;11.00;;;;;30.45;29.31;99673.88;5034212;28;8850;-75
2022/06/19 08:29:18;;;;;;;;;9.80;8.60;;;;;30.46;28.67;99672.91;5033033;28;8947;-76
2022/06/19 08:31:48;;;;;;;;;74.00;63.00;;;;;30.52;28.04;99678.63;5016985;28;8869;-78
2022/06/19 08:34:17;;;;;;;;;8.80;8.80;;;;;30.55;27.75;99672.16;5033047;28;10067;-76
2022/06/19 08:36:46;;;;;;;;;7.60;7.60;;;;;30.61;26.33;99676.19;5033287;28;8838;-76
2022/06/19 08:39:17;;;;;;;;;7.60;7.60;;;;;30.60;27.25;99675.28;5050973;28;8866;-76
2022/06/19 08:42:14;;;;;;;;;10.80;9.80;;;;;30.60;26.96;99683.38;5033326;28;8872;-79
2022/06/19 08:45:16;;;;;;;;;10.80;10.80;;;;;30.61;27.96;99684.25;4949909;28;8880;-77
2022/06/19 08:48:03;;;;;;;;;16.00;15.50;;;;;30.66;27.79;99682.91;4837762;29;8927;-80
2022/06/19 08:50:36;;;;;;;;;8.80;8.80;;;;;30.76;27.55;99677.59;4822307;29;8854;-79
2022/06/19 08:53:19;;;;;;;;;9.80;9.80;;;;;30.63;27.63;99677.75;4837921;29;8890;-75
2022/06/19 08:55:57;;;;;;;;;9.60;9.60;;;;;30.58;27.83;99674.56;4822035;29;9828;-78
2022/06/19 08:58:34;;;;;;;;;8.80;8.20;;;;;30.65;27.69;99667.72;4837132;29;8881;-77
2022/06/19 09:01:10;;;;;;;;;7.00;7.00;;;;;30.64;26.24;99667.81;4807194;29;9004;-78
2022/06/19 09:06:49;;;;;;;;;7.00;7.00;;;;;30.72;25.61;99670.75;4814899;29;9464;-76
2022/06/19 09:09:32;;;;;;;;;5.80;4.00;;;;;30.68;24.12;99672.84;4855531;29;8994;-77
2022/06/19 09:12:12;;;;;;;;;50.00;42.00;;;;;30.75;23.90;99666.94;4824877;29;8863;-78
2022/06/19 09:14:52;;;;;;;;;6.20;6.20;;;;;30.71;24.14;99664.50;4840492;29;8883;-76
2022/06/19 09:17:28;;;;;;;;;7.20;7.20;;;;;30.72;24.54;99660.00;4855213;29;8875;-77
2022/06/19 09:20:07;;;;;;;;;6.80;6.80;;;;;30.76;25.68;99663.28;4825345;29;9004;-77
2022/06/19 09:23:07;;;;;;;;;7.00;7.00;;;;;30.80;25.57;99668.28;4896033;29;8902;-79
2022/06/19 09:25:49;;;;;;;;;7.60;6.80;;;;;30.82;26.27;99660.06;5004827;28;8946;-76
2022/06/19 09:28:27;;;;;;;;;9.00;9.00;;;;;30.61;25.41;99655.50;5018095;28;8854;-77
2022/06/19 09:31:03;;;;;;;;;7.20;7.20;;;;;30.57;26.66;99654.03;5050141;28;8850;-77
2022/06/19 09:33:41;;;;;;;;;7.80;7.80;;;;;30.63;26.53;99650.81;5032586;28;8919;-78
2022/06/19 09:36:18;;;;;;;;;6.00;6.00;;;;;30.73;25.99;99652.75;5031933;28;8858;-78
2022/06/19 09:38:56;;;;;;;;;7.00;7.00;;;;;30.89;25.88;99640.59;4998708;28;8839;-76
2022/06/19 09:41:32;;;;;;;;;8.40;8.40;;;;;30.92;26.76;99642.19;5049766;28;8854;-78
2022/06/19 09:44:09;;;;;;;;;9.20;9.20;;;;;30.92;27.22;99636.78;5015220;28;8873;-76
2022/06/19 09:46:45;;;;;;;;;8.80;8.40;;;;;30.92;26.76;99634.09;5049478;28;8868;-77
2022/06/19 09:49:19;;;;;;;;;14.60;14.20;;;;;30.99;26.53;99640.69;5015918;28;8858;-78
2022/06/19 09:51:56;;;;;;;;;11.80;11.80;;;;;30.96;26.72;99642.78;5049997;28;8927;-76
2022/06/19 09:54:33;;;;;;;;;7.60;7.00;;;;;30.93;25.90;99635.81;5050167;28;8854;-77
2022/06/19 09:57:09;;;;;;;;;19.00;19.00;;;;;30.98;26.55;99627.34;5039886;28;8871;-76
2022/06/19 09:59:46;;;;;;;;;7.60;7.60;;;;;30.96;26.13;99626.63;5029759;28;8847;-81
2022/06/19 10:02:21;;;;;;;;;7.60;7.60;;;;;30.99;26.61;99632.59;5029598;28;8965;-76
2022/06/19 10:04:58;;;;;;;;;12.80;12.40;;;;;31.11;26.29;99635.25;5029511;28;8863;-77
2022/06/19 10:07:36;;;;;;;;;7.20;7.00;;;;;31.11;25.97;99633.41;5033283;28;8848;-77
2022/06/19 10:10:17;;;;;;;;;8.20;8.20;;;;;31.16;25.75;99624.94;5029932;28;8855;-76
2022/06/19 10:12:50;;;;;;;;;8.00;8.00;;;;;31.16;25.84;99620.41;5030010;28;8860;-77
2022/06/19 10:15:30;;;;;;;;;9.00;9.00;;;;;31.26;26.18;99615.06;5011414;28;8867;-77
2022/06/19 10:18:05;;;;;;;;;9.60;8.60;;;;;31.33;25.79;99618.09;5029611;28;9594;-77
2022/06/19 10:20:44;;;;;;;;;7.20;6.60;;;;;31.22;25.32;99617.19;5028016;28;8844;-80
2022/06/19 10:23:25;;;;;;;;;8.60;8.60;;;;;31.25;24.23;99624.16;5030013;28;8851;-80
2022/06/19 10:26:26;;;;;;;;;10.60;8.40;;;;;31.25;24.63;99616.06;4994513;28;8852;-79
2022/06/19 10:29:34;;;;;;;;;7.60;7.60;;;;;31.26;24.41;99615.91;5028185;28;8855;-79
2022/06/19 10:32:20;;;;;;;;;12.80;11.80;;;;;31.38;24.51;99621.25;4948414;28;8880;-77
2022/06/19 10:35:09;;;;;;;;;8.80;8.80;;;;;31.41;24.80;99610.19;4932349;28;8891;-78
2022/06/19 10:37:49;;;;;;;;;7.80;7.80;;;;;31.58;24.52;99608.78;4916587;28;8871;-79
2022/06/19 10:40:30;;;;;;;;;17.25;17.25;;;;;31.34;24.61;99599.09;4932993;28;9014;-77
2022/06/19 10:43:11;;;;;;;;;11.40;11.00;;;;;30.76;24.79;99598.66;4932224;28;8867;-77
2022/06/19 10:45:46;;;;;;;;;6.80;6.80;;;;;30.90;24.69;99590.28;4948069;28;9061;-76
2022/06/19 10:48:25;;;;;;;;;7.60;7.60;;;;;30.30;25.86;99588.03;4948514;28;9772;-77
2022/06/19 10:51:14;;;;;;;;;6.80;6.80;;;;;30.81;25.70;99596.41;4948968;28;8891;-79
2022/06/19 10:54:06;;;;;;;;;8.60;8.60;;;;;31.12;23.78;99592.03;4920999;28;8872;-77
2022/06/19 10:56:50;;;;;;;;;7.20;6.00;;;;;31.34;23.49;99587.47;4960732;28;8870;-82
2022/06/19 10:59:21;;;;;;;;;9.60;9.60;;;;;31.19;24.26;99579.75;4970695;28;8876;-78
2022/06/19 11:04:53;;;;;;;;;9.00;7.20;;;;;31.45;24.03;99572.06;4970653;28;8846;-76
2022/06/19 11:07:26;;;;;;;;;6.00;6.00;;;;;31.26;23.64;99577.34;4970407;28;8842;-78
2022/06/19 11:10:06;;;;;;;;;7.00;7.00;;;;;31.45;23.86;99579.28;5030730;28;8838;-79
2022/06/19 11:12:40;;;;;;;;;9.00;9.00;;;;;31.65;23.77;99574.91;5030487;28;8973;-77
2022/06/19 11:15:12;;;;;;;;;11.60;11.40;;;;;31.78;23.18;99571.97;5048190;28;8900;-76
2022/06/19 11:17:42;;;;;;;;;8.60;8.60;;;;;30.92;23.94;99565.94;5030045;28;8853;-78
2022/06/19 11:20:27;;;;;;;;;7.60;7.60;;;;;31.14;24.13;99562.25;5013863;28;8838;-78
2022/06/19 11:23:02;;;;;;;;;9.60;9.00;;;;;31.46;24.15;99563.03;5047960;28;8862;-78
2022/06/19 11:25:35;;;;;;;;;16.25;16.25;;;;;31.66;24.46;99553.19;5031326;28;8834;-77
2022/06/19 11:28:10;;;;;;;;;20.50;19.00;;;;;32.12;23.35;99561.72;5034720;28;8861;-77
2022/06/19 11:30:45;;;;;;;;;10.20;10.20;;;;;32.54;22.70;99558.78;5052654;28;8846;-78
2022/06/19 11:33:16;;;;;;;;;8.20;8.20;;;;;32.85;21.75;99552.41;5052590;28;9681;-79
2022/06/19 11:35:49;;;;;;;;;7.40;7.40;;;;;33.20;22.36;99558.06;5052543;28;8850;-75
2022/06/19 11:38:34;;;;;;;;;11.20;11.20;;;;;33.56;22.19;99560.94;5052145;28;8924;-78
2022/06/19 11:41:17;;;;;;;;;7.80;7.80;;;;;33.65;21.50;99548.44;5052014;28;8846;-79
2022/06/19 11:43:59;;;;;;;;;8.00;8.00;;;;;33.79;22.04;99549.78;5052706;28;8911;-78
2022/06/19 11:46:30;;;;;;;;;23.50;22.00;;;;;34.00;22.34;99541.38;5034676;28;8905;-77
2022/06/19 11:49:30;;;;;;;;;8.00;8.00;;;;;34.08;22.27;99540.63;5019080;28;8858;-81
2022/06/19 11:52:17;;;;;;;;;10.00;9.40;;;;;33.23;22.75;99543.41;4907733;28;9055;-78
2022/06/19 11:54:51;;;;;;;;;8.20;8.20;;;;;33.22;22.81;99539.84;4955011;28;8937;-77
2022/06/19 11:57:26;;;;;;;;;14.60;10.80;;;;;33.81;22.36;99538.81;4975209;28;8867;-78
2022/06/19 11:59:59;;;;;;;;;10.60;10.40;;;;;34.20;22.42;99519.63;4974258;28;8878;-77
2022/06/19 12:02:32;;;;;;;;;18.25;18.25;;;;;34.49;22.34;99527.53;4971968;28;8909;-78